Time;durP1;ratioP1;P1;durP2;ratioP2;P2;SDS_P1;SDS_P2;PMS_P1;PMS_P2;Temp;Humidity;BMP_temperature;BMP_pressure;BME280_temperature;BME280_humidity;BME280_pressure;Samples;Min_cycle;Max_cycle;Signal;HPM_P1;HPM_P2
2021/06/11 00:01:54;;;;;;;10.03;6.00;;;;;;;18.77;60.23;100809.03;4866785;60;1140691;-78
2021/06/11 00:07:00;;;;;;;5.30;4.72;;;;;;;18.89;60.49;100807.20;4866829;60;1140764;-77
2021/06/11 00:12:06;;;;;;;5.83;4.03;;;;;;;18.98;60.42;100800.83;4866990;59;1138553;-76
2021/06/11 00:17:13;;;;;;;6.85;4.53;;;;;;;18.96;60.00;100796.64;4867064;60;1138608;-77
2021/06/11 00:22:19;;;;;;;7.97;4.58;;;;;;;18.63;59.78;100785.56;4890435;59;1138508;-78
2021/06/11 00:27:25;;;;;;;5.42;4.95;;;;;;;18.47;60.20;100799.72;5008093;58;1138897;-79
2021/06/11 00:32:31;;;;;;;7.87;5.25;;;;;;;18.38;60.60;100803.36;5030705;58;1138580;-76
2021/06/11 00:37:37;;;;;;;8.73;4.55;;;;;;;18.21;60.50;100805.97;4997536;58;1138905;-80
2021/06/11 00:42:43;;;;;;;14.35;7.45;;;;;;;18.18;61.02;100802.80;4997415;58;1138493;-79
2021/06/11 00:47:49;;;;;;;11.20;6.10;;;;;;;18.06;60.97;100811.59;5030653;58;1140920;-80
2021/06/11 00:52:56;;;;;;;18.62;10.18;;;;;;;17.96;61.08;100810.05;4997166;58;1141017;-79
2021/06/11 00:58:02;;;;;;;16.60;9.50;;;;;;;17.87;61.24;100809.17;4996937;58;1143171;-75
2021/06/11 01:03:08;;;;;;;17.40;9.85;;;;;;;17.95;61.79;100803.02;4997192;58;1141382;-76
2021/06/11 01:08:17;;;;;;;9.93;6.25;;;;;;;17.99;61.48;100797.69;4997738;58;1140950;-77
2021/06/11 01:13:23;;;;;;;13.17;6.87;;;;;;;17.95;61.22;100803.02;4997787;58;1138493;-79
2021/06/11 01:18:28;;;;;;;11.67;6.13;;;;;;;17.75;60.99;100796.55;4997650;58;1140424;-79
2021/06/11 01:23:44;;;;;;;13.05;6.33;;;;;;;17.81;61.89;100789.73;4997574;58;1140920;-76
2021/06/11 01:28:55;;;;;;;8.48;4.92;;;;;;;17.91;61.78;100791.28;5074856;57;1140668;-77
2021/06/11 01:34:06;;;;;;;14.03;6.78;;;;;;;17.69;61.45;100789.67;5099915;57;1138884;-79
2021/06/11 01:39:16;;;;;;;7.97;5.50;;;;;;;17.19;61.95;100791.62;5100180;57;1140566;-80
2021/06/11 01:44:24;;;;;;;7.00;5.00;;;;;;;17.19;61.95;100791.62;5099921;57;1138271;-77
2021/06/11 01:49:31;;;;;;;13.13;5.13;;;;;;;17.20;62.16;100794.64;5100404;57;1138229;-77
2021/06/11 01:54:40;;;;;;;9.47;5.37;;;;;;;17.07;61.95;100791.03;5099930;57;1140577;-78
2021/06/11 01:59:47;;;;;;;14.97;7.20;;;;;;;17.12;62.52;100790.05;5100239;57;1138251;-74
2021/06/11 02:04:55;;;;;;;17.62;8.58;;;;;;;17.12;62.29;100789.22;5026799;58;1140856;-78
2021/06/11 02:10:06;;;;;;;7.33;4.80;;;;;;;17.13;62.57;100788.22;5097868;57;1140586;-77
2021/06/11 02:15:14;;;;;;;7.90;4.73;;;;;;;16.99;62.17;100794.95;5097985;57;1138894;-79
2021/06/11 02:20:24;;;;;;;6.07;4.53;;;;;;;16.86;62.39;100792.67;5098166;57;1138711;-78
2021/06/11 02:25:31;;;;;;;8.00;5.00;;;;;;;16.68;62.52;100799.00;5058543;57;1138587;-79
2021/06/11 02:30:37;;;;;;;6.73;5.40;;;;;;;16.52;62.70;100806.31;5031080;57;1138534;-73
2021/06/11 02:35:44;;;;;;;6.17;4.90;;;;;;;16.39;63.00;100801.33;4997664;58;1138280;-73
2021/06/11 02:40:51;;;;;;;4.60;4.17;;;;;;;16.23;63.50;100805.14;4997495;58;1138527;-77
2021/06/11 02:46:22;;;;;;;6.53;5.50;;;;;;;16.09;63.78;100801.63;4997942;58;1138498;-75
2021/06/11 02:51:32;;;;;;;28.60;14.20;;;;;;;16.01;63.97;100805.05;4997663;58;1138816;-78
2021/06/11 02:56:51;;;;;;;21.40;9.93;;;;;;;16.06;64.26;100802.77;4997322;58;1142615;-78
2021/06/11 03:02:10;;;;;;;19.07;10.17;;;;;;;16.32;64.81;100806.09;4997725;58;1141049;-75
2021/06/11 03:07:25;;;;;;;12.00;8.00;;;;;;;16.58;64.77;100800.88;4997322;58;1142476;-78
2021/06/11 03:12:32;;;;;;;7.28;6.05;;;;;;;16.76;64.39;100801.77;4987194;58;1140409;-77
2021/06/11 03:17:51;;;;;;;7.33;5.43;;;;;;;16.83;63.80;100802.82;4997605;58;1138533;-74
2021/06/11 03:23:14;;;;;;;14.17;8.50;;;;;;;16.67;63.71;100814.18;4997681;58;1138801;-78
2021/06/11 03:28:38;;;;;;;12.03;4.90;;;;;;;16.51;63.81;100809.47;5030668;58;1140562;-75
2021/06/11 03:33:48;;;;;;;5.70;5.10;;;;;;;16.35;64.22;100808.45;5094284;57;1140880;-73
2021/06/11 03:38:58;;;;;;;10.20;5.40;;;;;;;16.19;64.72;100815.27;5097679;57;1138476;-75
2021/06/11 03:44:08;;;;;;;5.50;4.43;;;;;;;16.23;65.13;100809.14;5097616;57;1140415;-76
2021/06/11 03:49:16;;;;;;;9.77;5.30;;;;;;;16.29;65.13;100811.23;5097700;57;1138393;-77
2021/06/11 03:54:24;;;;;;;5.27;4.40;;;;;;;16.26;64.85;100809.34;5058231;57;1138869;-76
2021/06/11 03:59:34;;;;;;;8.37;5.53;;;;;;;16.31;64.96;100807.09;5097404;57;1138705;-77
2021/06/11 04:04:40;;;;;;;6.53;4.63;;;;;;;16.39;64.78;100806.67;5097525;57;1138695;-76
2021/06/11 04:09:54;;;;;;;7.97;4.70;;;;;;;16.39;64.58;100820.52;5097428;57;1138490;-79
2021/06/11 04:15:01;;;;;;;9.83;4.90;;;;;;;16.37;64.86;100827.83;5097589;57;1139017;-76
2021/06/11 04:20:11;;;;;;;7.28;4.85;;;;;;;16.27;64.84;100825.71;5097588;57;1138455;-74
2021/06/11 04:25:18;;;;;;;9.07;5.07;;;;;;;16.28;64.94;100830.06;5022250;57;1138777;-74
2021/06/11 04:30:25;;;;;;;13.03;9.10;;;;;;;16.27;64.80;100841.72;5042229;57;1138453;-74
2021/06/11 04:35:35;;;;;;;14.90;10.00;;;;;;;16.29;64.86;100831.25;4970845;57;1140580;-74
2021/06/11 04:40:38;;;;;;;5.63;4.37;;;;;;;16.30;64.84;100836.09;5011550;57;1142449;-73
2021/06/11 04:45:45;;;;;;;7.67;4.60;;;;;;;16.29;64.75;100831.75;4980714;58;1138805;-73
2021/06/11 04:50:50;;;;;;;7.13;4.40;;;;;;;16.31;64.71;100833.28;4948625;58;1138479;-73
2021/06/11 04:55:58;;;;;;;5.03;4.42;;;;;;;16.31;64.57;100829.28;4964571;58;1138850;-73
2021/06/11 05:01:06;;;;;;;7.47;6.10;;;;;;;16.30;64.87;100828.09;4915459;58;1138642;-72
2021/06/11 05:06:13;;;;;;;15.85;7.10;;;;;;;16.42;64.96;100839.75;4906041;59;1138676;-76
2021/06/11 05:11:19;;;;;;;9.80;5.67;;;;;;;16.62;65.14;100843.16;4828116;60;1140724;-73
2021/06/11 05:16:26;;;;;;;7.20;5.10;;;;;;;16.70;64.81;100839.75;4826635;59;1138858;-76
2021/06/11 05:21:32;;;;;;;14.10;5.43;;;;;;;16.80;64.99;100833.87;4830834;60;1138568;-73
2021/06/11 05:26:38;;;;;;;7.90;4.83;;;;;;;16.82;64.86;100834.53;4907687;59;1140578;-75
2021/06/11 05:31:43;;;;;;;5.30;4.80;;;;;;;16.77;65.24;100837.67;4829969;59;1138592;-73
2021/06/11 05:36:49;;;;;;;13.33;6.03;;;;;;;16.78;65.49;100834.52;4918842;58;1138504;-76
2021/06/11 05:41:55;;;;;;;9.27;5.93;;;;;;;16.84;65.74;100828.55;4747953;61;1141004;-76
2021/06/11 05:47:01;;;;;;;8.77;4.80;;;;;;;16.91;65.86;100834.98;4937990;58;1138779;-76
2021/06/11 05:52:08;;;;;;;7.53;5.53;;;;;;;16.96;65.90;100831.33;4983708;57;1138780;-73
2021/06/11 05:57:14;;;;;;;8.28;5.28;;;;;;;17.01;66.16;100832.22;4987135;57;1138852;-75
2021/06/11 06:02:19;;;;;;;10.97;5.27;;;;;;;17.08;66.12;100835.97;4986032;58;1138943;-73
2021/06/11 06:07:25;;;;;;;10.53;5.37;;;;;;;17.16;65.98;100832.02;4986289;58;1140883;-76
2021/06/11 06:12:30;;;;;;;13.27;5.17;;;;;;;17.21;66.43;100834.59;4835249;58;1141017;-74
2021/06/11 06:17:36;;;;;;;8.00;5.53;;;;;;;17.27;66.46;100839.80;4834064;60;1140863;-73
2021/06/11 06:22:43;;;;;;;7.63;5.90;;;;;;;17.37;66.44;100847.25;4835974;59;1138806;-74
2021/06/11 06:27:49;;;;;;;15.10;8.30;;;;;;;17.32;66.70;100854.88;4857901;58;1138858;-75
2021/06/11 06:32:55;;;;;;;11.97;6.53;;;;;;;17.24;67.14;100860.17;4905090;59;1140924;-75
2021/06/11 06:38:01;;;;;;;12.40;6.73;;;;;;;17.12;67.41;100860.87;4915120;59;1140920;-73
2021/06/11 06:43:07;;;;;;;7.58;6.25;;;;;;;17.02;68.13;100860.13;4876419;58;1141304;-74
2021/06/11 06:48:13;;;;;;;9.28;6.20;;;;;;;17.07;69.46;100862.34;4783588;60;1138920;-78
2021/06/11 06:53:19;;;;;;;7.33;6.60;;;;;;;17.15;69.91;100846.38;4850138;59;1138759;-77
2021/06/11 06:58:25;;;;;;;10.10;6.70;;;;;;;17.27;70.52;100844.30;4782555;60;1138473;-78
2021/06/11 07:03:32;;;;;;;6.57;5.83;;;;;;;17.44;70.14;100840.77;4852690;60;1140911;-74
2021/06/11 07:08:38;;;;;;;9.40;6.57;;;;;;;17.59;69.47;100836.53;4916749;59;1138732;-76
2021/06/11 07:13:44;;;;;;;7.63;6.23;;;;;;;17.60;68.79;100828.85;4969100;58;1138486;-77
2021/06/11 07:18:50;;;;;;;9.00;6.00;;;;;;;17.75;69.29;100829.15;4948049;58;1138612;-78
2021/06/11 07:23:55;;;;;;;7.33;6.03;;;;;;;17.83;68.89;100834.56;4947769;58;1138557;-75
2021/06/11 07:29:01;;;;;;;10.83;6.10;;;;;;;17.98;69.37;100834.81;4947937;59;1138591;-74
2021/06/11 07:34:07;;;;;;;9.70;5.78;;;;;;;18.09;69.34;100832.70;4969150;58;1140583;-76
2021/06/11 07:39:13;;;;;;;16.00;6.78;;;;;;;18.26;69.14;100842.98;4997038;58;1138790;-75
2021/06/11 07:44:19;;;;;;;7.28;4.45;;;;;;;18.48;69.07;100832.20;4915728;57;1140413;-78
2021/06/11 07:49:24;;;;;;;7.03;4.77;;;;;;;18.64;68.15;100832.78;4914943;57;1138338;-75
2021/06/11 07:54:30;;;;;;;3.97;3.60;;;;;;;18.77;67.39;100843.86;4899333;59;1138340;-78
2021/06/11 07:59:36;;;;;;;6.70;3.87;;;;;;;18.84;66.66;100833.65;4899222;59;1138843;-76
2021/06/11 08:04:42;;;;;;;3.90;3.53;;;;;;;18.90;65.70;100830.32;4899113;59;1138216;-77
2021/06/11 08:09:48;;;;;;;3.77;3.17;;;;;;;19.12;65.20;100828.81;4899312;59;1138382;-75
2021/06/11 08:14:53;;;;;;;6.33;3.50;;;;;;;19.39;64.96;100834.88;4973521;58;1138371;-76
2021/06/11 08:19:59;;;;;;;6.37;3.60;;;;;;;19.63;63.32;100829.51;4977576;58;1138765;-77
2021/06/11 08:25:08;;;;;;;7.22;2.96;;;;;;;19.86;63.50;100825.09;4978190;58;1138454;-77
2021/06/11 08:30:15;;;;;;;7.20;2.50;;;;;;;20.33;63.13;100825.09;4917753;58;1138776;-78
2021/06/11 08:35:21;;;;;;;1.98;1.80;;;;;;;20.68;60.41;100825.12;5020826;58;1138512;-76
2021/06/11 08:40:29;;;;;;;3.58;2.47;;;;;;;20.93;57.41;100824.44;5020452;58;1138376;-75
2021/06/11 08:45:35;;;;;;;3.17;2.58;;;;;;;21.07;58.95;100826.89;5020670;57;1138328;-73
2021/06/11 08:50:41;;;;;;;4.45;3.65;;;;;;;21.32;59.20;100819.48;5020564;58;1138536;-74
2021/06/11 08:55:47;;;;;;;4.65;4.05;;;;;;;21.62;59.62;100821.73;5020683;57;1138448;-76
2021/06/11 09:00:53;;;;;;;3.95;3.65;;;;;;;21.91;59.51;100820.91;5020619;57;1138340;-76
2021/06/11 09:06:06;;;;;;;6.85;4.42;;;;;;;22.30;57.16;100822.85;5020568;57;1138883;-74
2021/06/11 09:11:27;;;;;;;6.03;5.08;;;;;;;22.47;58.34;100816.70;5020936;57;1138683;-76
2021/06/11 09:16:48;;;;;;;5.62;4.70;;;;;;;22.76;57.69;100823.41;5020657;57;1138710;-76
2021/06/11 09:22:02;;;;;;;5.20;4.10;;;;;;;22.68;55.75;100828.06;5020482;58;1139013;-74
2021/06/11 09:27:11;;;;;;;6.08;3.90;;;;;;;22.35;55.88;100831.19;5021409;58;1139072;-78
2021/06/11 09:32:28;;;;;;;5.75;4.05;;;;;;;22.25;55.75;100827.13;5021383;57;1138996;-78
2021/06/11 09:37:42;;;;;;;6.67;3.95;;;;;;;22.14;54.53;100820.87;5021071;57;1138876;-76
2021/06/11 09:42:52;;;;;;;6.25;3.37;;;;;;;22.07;56.02;100826.15;5020832;58;1138776;-75
2021/06/11 09:47:53;;;;;;;6.33;4.72;;;;;;;22.17;55.87;100828.05;5020118;57;1138896;-74
2021/06/11 09:53:11;;;;;;;2.60;2.42;;;;;;;22.15;55.93;100833.31;5021054;57;1138749;-76
2021/06/11 09:58:28;;;;;;;5.42;3.50;;;;;;;22.32;55.59;100829.38;5021157;57;1138821;-77
2021/06/11 10:03:37;;;;;;;3.52;3.00;;;;;;;22.40;54.84;100831.98;5021219;57;1138386;-78
2021/06/11 10:08:45;;;;;;;7.12;2.98;;;;;;;22.57;53.70;100828.56;5020806;57;1138551;-76
2021/06/11 10:13:51;;;;;;;4.05;2.58;;;;;;;22.56;52.83;100828.23;5021012;57;1138766;-75
2021/06/11 10:18:57;;;;;;;6.90;2.17;;;;;;;22.79;54.03;100823.54;5021048;57;1138498;-74
2021/06/11 10:24:06;;;;;;;3.00;1.92;;;;;;;23.09;51.30;100812.12;5010570;57;1138382;-78
2021/06/11 10:29:17;;;;;;;2.83;1.35;;;;;;;23.30;49.93;100814.81;5006196;57;1138483;-74
2021/06/11 10:34:50;;;;;;;3.62;1.70;;;;;;;23.45;47.47;100808.81;5020885;57;1138352;-79
2021/06/11 10:39:56;;;;;;;2.12;1.92;;;;;;;23.54;46.97;100801.94;4876301;59;1138368;-78
2021/06/11 10:45:04;;;;;;;2.35;1.70;;;;;;;23.57;49.29;100806.44;4824304;60;1139013;-76
2021/06/11 10:50:12;;;;;;;2.63;1.90;;;;;;;23.74;47.86;100807.80;4839282;60;1138477;-78
2021/06/11 10:55:24;;;;;;;3.97;1.60;;;;;;;23.71;47.58;100801.95;4836493;60;1138516;-78
2021/06/11 11:00:36;;;;;;;2.50;2.27;;;;;;;23.77;45.51;100803.88;4836167;60;1138478;-78
2021/06/11 11:05:43;;;;;;;3.23;1.80;;;;;;;23.81;47.28;100805.99;4836689;59;1139083;-75
2021/06/11 11:10:54;;;;;;;3.45;1.70;;;;;;;23.92;45.36;100808.64;4835897;60;1138686;-77
2021/06/11 11:15:59;;;;;;;2.55;2.00;;;;;;;23.79;46.66;100808.05;4920867;58;1138734;-74
2021/06/11 11:21:42;;;;;;;5.80;1.82;;;;;;;23.97;47.91;100808.89;4979448;58;1138740;-79
2021/06/11 11:26:50;;;;;;;3.08;1.80;;;;;;;24.24;46.43;100805.00;4978930;58;1138792;-73
2021/06/11 11:31:56;;;;;;;2.27;1.80;;;;;;;24.36;46.23;100794.75;4979127;57;1138934;-75
2021/06/11 11:37:02;;;;;;;4.08;1.82;;;;;;;24.63;47.17;100784.02;4979275;58;1139011;-77
2021/06/11 11:42:16;;;;;;;1.70;1.60;;;;;;;24.80;46.91;100787.48;4979455;58;1138796;-75
2021/06/11 11:47:17;;;;;;;2.37;2.00;;;;;;;24.75;45.74;100773.73;5020245;58;1138735;-75
2021/06/11 11:52:23;;;;;;;10.50;2.20;;;;;;;24.69;45.83;100761.05;5020558;57;1138834;-78
2021/06/11 11:57:30;;;;;;;3.00;2.00;;;;;;;24.63;45.79;100764.56;5020584;57;1140898;-78
2021/06/11 12:02:36;;;;;;;1.95;1.75;;;;;;;24.71;46.81;100761.69;5020654;57;1138801;-78
2021/06/11 12:07:43;;;;;;;2.00;1.70;;;;;;;24.95;46.91;100742.69;5020738;57;1139165;-77
2021/06/11 12:12:50;;;;;;;3.40;2.50;;;;;;;25.02;44.76;100753.01;5020750;57;1138757;-77
2021/06/11 12:17:57;;;;;;;2.65;1.57;;;;;;;24.80;45.72;100748.27;5020589;57;1138895;-76
2021/06/11 12:23:05;;;;;;;2.85;2.20;;;;;;;24.98;44.41;100741.45;5020586;57;1138910;-77
2021/06/11 12:28:10;;;;;;;3.72;2.08;;;;;;;24.93;45.71;100739.84;5020661;57;1138752;-74
2021/06/11 12:33:16;;;;;;;1.50;1.45;;;;;;;24.81;46.14;100745.87;5020751;57;1138798;-75
2021/06/11 12:38:22;;;;;;;9.10;2.05;;;;;;;24.90;45.65;100739.20;5018911;57;1139065;-75
2021/06/11 12:48:54;;;;;;;1.98;1.60;;;;;;;24.83;45.21;100724.86;4765625;59;1140850;-76
2021/06/11 12:54:00;;;;;;;2.47;2.20;;;;;;;24.92;44.86;100717.88;4765921;59;1138641;-77
2021/06/11 12:59:06;;;;;;;2.87;1.72;;;;;;;24.87;45.49;100718.00;4766053;59;1139030;-75
2021/06/11 13:04:12;;;;;;;1.70;1.60;;;;;;;25.09;45.67;100713.75;4766340;59;1138635;-77
2021/06/11 13:09:18;;;;;;;1.52;1.40;;;;;;;25.16;44.94;100717.30;4765921;59;1138665;-76
2021/06/11 13:14:24;;;;;;;2.22;2.02;;;;;;;25.37;45.79;100714.86;4766037;59;1138522;-77
2021/06/11 13:19:30;;;;;;;2.58;2.35;;;;;;;25.52;44.47;100714.94;4765803;59;1138670;-77
2021/06/11 13:24:36;;;;;;;3.00;2.35;;;;;;;25.63;45.06;100704.54;4985351;57;1138241;-78
2021/06/11 13:29:42;;;;;;;2.62;2.25;;;;;;;25.76;43.29;100696.37;5032494;57;1138780;-73
2021/06/11 13:34:49;;;;;;;3.60;2.12;;;;;;;25.76;43.29;100696.37;5032338;57;1138500;-77
2021/06/11 13:39:55;;;;;;;2.22;1.55;;;;;;;25.84;45.19;100693.41;5032315;57;1138339;-76
2021/06/11 13:45:02;;;;;;;1.92;1.70;;;;;;;25.79;42.34;100690.53;5032289;57;1138378;-78
2021/06/11 13:50:09;;;;;;;2.08;1.75;;;;;;;25.89;43.25;100681.41;5021010;57;1138840;-78
2021/06/11 13:55:16;;;;;;;1.50;1.40;;;;;;;25.80;43.89;100688.13;5020684;57;1138848;-75
2021/06/11 14:00:30;;;;;;;5.45;2.00;;;;;;;25.78;43.72;100677.50;5020676;57;1138824;-77
2021/06/11 14:05:39;;;;;;;1.70;1.60;;;;;;;26.08;44.86;100668.81;5020670;57;1138937;-77
2021/06/11 14:10:46;;;;;;;3.90;1.70;;;;;;;26.47;42.29;100671.83;5020167;57;1138899;-77
2021/06/11 14:15:52;;;;;;;1.55;1.42;;;;;;;26.37;40.30;100663.35;5020965;57;1138759;-79
2021/06/11 14:20:58;;;;;;;1.70;1.60;;;;;;;26.20;41.87;100666.55;5021103;57;1139187;-77
2021/06/11 14:26:05;;;;;;;5.67;1.47;;;;;;;26.11;41.35;100670.58;5021323;57;1138704;-79
2021/06/11 14:31:10;;;;;;;1.32;1.32;;;;;;;25.87;40.83;100659.11;5020904;57;1139043;-75
2021/06/11 14:36:17;;;;;;;3.67;1.32;;;;;;;25.71;41.62;100669.08;5021160;57;1139011;-78
2021/06/11 14:41:22;;;;;;;2.00;1.62;;;;;;;25.75;42.47;100671.15;5021007;57;1138919;-75
2021/06/11 14:46:28;;;;;;;1.67;1.10;;;;;;;25.87;41.63;100661.81;5021204;57;1138751;-78
2021/06/11 14:51:34;;;;;;;4.53;1.50;;;;;;;25.97;40.83;100654.08;4981745;57;1138902;-78
2021/06/11 14:56:46;;;;;;;2.08;1.77;;;;;;;25.83;41.24;100660.05;4978317;57;1138975;-75
2021/06/11 15:01:48;;;;;;;2.62;1.50;;;;;;;25.70;41.42;100667.41;4978078;57;1138688;-78
2021/06/11 15:06:55;;;;;;;1.70;1.60;;;;;;;25.59;41.98;100662.11;4978327;57;1138484;-76
2021/06/11 15:12:01;;;;;;;2.45;1.92;;;;;;;25.78;42.17;100654.99;4978190;57;1138377;-80
2021/06/11 15:17:06;;;;;;;4.72;1.90;;;;;;;25.84;42.12;100648.69;4978275;57;1138375;-74
2021/06/11 15:22:13;;;;;;;4.70;1.60;;;;;;;25.60;42.05;100650.23;4978308;57;1138772;-80
2021/06/11 15:27:19;;;;;;;4.65;2.15;;;;;;;25.58;42.79;100638.25;4976653;57;1138707;-78
2021/06/11 15:32:24;;;;;;;3.52;2.45;;;;;;;25.75;42.25;100640.52;4978643;57;1138291;-78
2021/06/11 15:37:30;;;;;;;3.45;2.08;;;;;;;25.86;42.46;100633.05;4977490;57;1138365;-76
2021/06/11 15:42:36;;;;;;;5.28;2.45;;;;;;;25.88;42.46;100629.09;4977842;58;1138423;-75
2021/06/11 15:47:43;;;;;;;3.20;1.98;;;;;;;25.84;42.52;100628.37;4978165;57;1138306;-77
2021/06/11 15:52:50;;;;;;;4.85;2.15;;;;;;;25.85;42.45;100621.38;4996871;57;1138762;-78
2021/06/11 15:57:56;;;;;;;7.20;2.42;;;;;;;25.87;42.32;100617.94;5000540;57;1138359;-79
2021/06/11 16:03:02;;;;;;;4.03;2.37;;;;;;;25.89;42.89;100612.30;5000700;57;1138359;-74
2021/06/11 16:08:08;;;;;;;2.15;2.05;;;;;;;26.07;43.05;100611.58;5000616;57;1138707;-75
2021/06/11 16:13:14;;;;;;;2.40;2.08;;;;;;;26.18;42.49;100615.77;4998720;57;1138887;-74
2021/06/11 16:18:20;;;;;;;3.33;1.90;;;;;;;26.22;42.37;100613.47;5000532;57;1138300;-75
2021/06/11 16:23:26;;;;;;;2.05;1.80;;;;;;;26.25;41.94;100609.80;5000766;57;1138637;-77
2021/06/11 16:28:32;;;;;;;2.33;2.22;;;;;;;26.19;42.00;100607.12;5000584;57;1138954;-76
2021/06/11 16:33:39;;;;;;;2.25;1.92;;;;;;;25.99;41.58;100603.69;5000394;57;1138683;-77
2021/06/11 16:38:45;;;;;;;2.75;2.10;;;;;;;25.98;42.64;100604.21;5000607;57;1138557;-79
2021/06/11 16:43:51;;;;;;;5.37;2.17;;;;;;;25.98;42.65;100608.80;5000722;57;1138804;-75
2021/06/11 16:48:58;;;;;;;3.67;2.58;;;;;;;25.83;42.89;100607.22;5000448;57;1138513;-74
2021/06/11 16:54:04;;;;;;;7.78;2.25;;;;;;;25.78;43.41;100615.70;4983753;57;1138551;-76
2021/06/11 16:59:10;;;;;;;1.95;1.80;;;;;;;25.72;43.03;100613.32;4989448;57;1138341;-76
2021/06/11 17:04:18;;;;;;;3.90;2.85;;;;;;;25.68;43.33;100616.67;4968997;57;1139054;-76
2021/06/11 17:09:24;;;;;;;2.42;2.22;;;;;;;25.49;44.01;100619.76;4978190;57;1138287;-74
2021/06/11 17:14:30;;;;;;;3.40;2.62;;;;;;;25.33;44.21;100626.47;4978313;57;1138378;-72
2021/06/11 17:19:36;;;;;;;4.62;2.83;;;;;;;25.16;44.54;100625.27;4978158;57;1138302;-75
2021/06/11 17:24:41;;;;;;;4.92;2.47;;;;;;;25.04;44.88;100626.44;4978298;57;1138285;-74
2021/06/11 17:29:51;;;;;;;4.90;2.50;;;;;;;25.05;44.97;100626.75;4978296;57;1138407;-76
2021/06/11 17:34:56;;;;;;;8.30;2.30;;;;;;;25.09;44.94;100625.78;4978504;57;1138893;-77
2021/06/11 17:40:06;;;;;;;2.90;2.70;;;;;;;25.11;45.25;100633.17;4978214;57;1138552;-75
2021/06/11 17:45:33;;;;;;;9.78;2.70;;;;;;;25.12;45.00;100626.72;4978353;57;1138316;-74
2021/06/11 17:50:41;;;;;;;2.60;2.37;;;;;;;25.10;45.16;100626.93;4899126;59;1138408;-74
2021/06/11 17:55:49;;;;;;;8.98;2.90;;;;;;;25.05;45.43;100620.51;4899378;59;1138594;-73
2021/06/11 18:01:04;;;;;;;7.42;2.60;;;;;;;25.00;45.40;100625.19;4899266;59;1138365;-74
2021/06/11 18:06:12;;;;;;;5.00;3.02;;;;;;;24.96;45.70;100628.52;4898315;59;1138766;-73
2021/06/11 18:11:22;;;;;;;6.10;2.80;;;;;;;24.89;45.98;100619.04;4899396;59;1138669;-75
2021/06/11 18:16:31;;;;;;;10.15;2.98;;;;;;;24.91;46.52;100626.39;4899756;59;1138849;-76
2021/06/11 18:21:47;;;;;;;8.48;3.35;;;;;;;24.99;46.69;100620.81;4899025;59;1140847;-76
2021/06/11 18:27:03;;;;;;;17.90;4.30;;;;;;;24.97;46.54;100622.06;4899347;59;1139037;-73
2021/06/11 18:32:22;;;;;;;6.60;3.58;;;;;;;24.90;46.67;100617.45;4898951;58;1140936;-73
2021/06/11 18:37:32;;;;;;;6.00;4.65;;;;;;;24.89;47.02;100610.92;4899457;59;1138552;-75
2021/06/11 18:43:07;;;;;;;6.17;4.53;;;;;;;24.89;47.04;100610.41;4899219;59;1138267;-74
2021/06/11 18:53:38;;;;;;;13.72;4.15;;;;;;;24.82;47.45;100606.86;4887205;59;1138400;-74
2021/06/11 18:58:50;;;;;;;22.32;9.25;;;;;;;24.75;47.93;100611.42;4898984;59;1140562;-76
2021/06/11 19:04:12;;;;;;;23.57;4.85;;;;;;;24.73;48.92;100610.00;4899010;59;1140602;-75
2021/06/11 19:09:18;;;;;;;22.04;6.28;;;;;;;24.74;49.45;100616.55;4899395;59;1140724;-76
2021/06/11 19:14:27;;;;;;;27.10;6.30;;;;;;;24.66;49.90;100610.51;4899271;59;1140593;-76
2021/06/11 19:19:46;;;;;;;35.52;11.05;;;;;;;24.64;50.72;100615.29;4898994;59;1140381;-75
2021/06/11 19:25:10;;;;;;;23.25;6.03;;;;;;;24.55;51.02;100618.73;4899002;59;1142666;-75
2021/06/11 19:30:29;;;;;;;33.65;7.75;;;;;;;24.44;51.34;100626.12;4898950;59;1140568;-73
2021/06/11 19:35:44;;;;;;;42.27;13.80;;;;;;;24.34;51.60;100625.16;4898718;59;1140404;-76
2021/06/11 19:40:54;;;;;;;47.55;14.68;;;;;;;24.27;51.95;100621.62;4896847;59;1142939;-76
2021/06/11 19:46:16;;;;;;;92.10;28.15;;;;;;;24.18;52.09;100618.75;4896982;59;1142895;-74
2021/06/11 19:51:23;;;;;;;126.90;35.20;;;;;;;24.02;52.20;100624.53;4897132;59;1142904;-75
2021/06/11 19:56:30;;;;;;;48.90;14.77;;;;;;;23.90;52.57;100628.88;4909298;58;1144978;-77
2021/06/11 20:01:38;;;;;;;57.67;15.20;;;;;;;23.71;52.80;100638.05;4939762;58;1142949;-74
2021/06/11 20:06:45;;;;;;;77.97;22.10;;;;;;;23.35;53.40;100654.47;4940480;58;1142939;-75
2021/06/11 20:11:51;;;;;;;83.40;26.73;;;;;;;23.25;54.39;100651.79;4940299;58;1142920;-76
2021/06/11 20:16:57;;;;;;;68.20;23.42;;;;;;;23.19;54.43;100650.73;4940415;58;1142860;-74
2021/06/11 20:22:03;;;;;;;41.75;14.83;;;;;;;23.18;54.45;100650.94;4940559;58;1143012;-76
2021/06/11 20:27:10;;;;;;;43.33;11.50;;;;;;;22.94;54.49;100654.38;4940422;58;1143185;-75
2021/06/11 20:32:16;;;;;;;8.10;5.54;;;;;;;22.78;55.21;100647.41;4940639;58;1142889;-75
2021/06/11 20:37:23;;;;;;;13.85;5.53;;;;;;;22.60;55.92;100643.52;4941332;58;1138658;-73
2021/06/11 20:42:29;;;;;;;17.40;5.62;;;;;;;22.56;56.43;100643.58;4941182;58;1140868;-76
2021/06/11 20:47:36;;;;;;;15.68;5.60;;;;;;;22.57;56.85;100644.73;4940554;58;1140537;-77
2021/06/11 20:52:43;;;;;;;10.65;5.85;;;;;;;22.42;56.74;100643.97;4940483;58;1140629;-75
2021/06/11 20:57:49;;;;;;;14.80;8.40;;;;;;;22.29;57.22;100644.68;4941309;58;1140547;-77
2021/06/11 21:02:55;;;;;;;29.95;9.95;;;;;;;22.26;57.26;100642.88;4942535;58;1140910;-73
2021/06/11 21:08:01;;;;;;;26.33;10.23;;;;;;;22.16;57.19;100639.64;4942748;57;1140998;-75
2021/06/11 21:13:07;;;;;;;44.03;16.15;;;;;;;22.16;57.19;100639.64;4942459;58;1143193;-76
2021/06/11 21:18:13;;;;;;;37.08;15.60;;;;;;;22.09;57.48;100646.32;4942350;58;1142965;-77
2021/06/11 21:23:19;;;;;;;30.70;11.90;;;;;;;21.98;57.59;100634.16;4943021;58;1142965;-77
2021/06/11 21:28:25;;;;;;;27.27;13.13;;;;;;;21.91;57.75;100637.28;4943183;58;1142951;-76
2021/06/11 21:33:32;;;;;;;19.07;10.32;;;;;;;21.87;57.78;100648.61;4943223;57;1142959;-77
2021/06/11 21:38:37;;;;;;;21.52;10.98;;;;;;;21.79;58.03;100645.53;4943308;58;1142566;-76
2021/06/11 21:43:43;;;;;;;31.90;12.53;;;;;;;21.70;58.07;100645.30;4943351;58;1142623;-74
2021/06/11 21:48:49;;;;;;;22.37;12.53;;;;;;;21.68;58.20;100656.79;4942975;58;1142491;-76
2021/06/11 21:53:55;;;;;;;25.02;10.98;;;;;;;21.55;57.84;100658.77;4942891;58;1142643;-76
2021/06/11 21:59:01;;;;;;;23.20;11.10;;;;;;;21.27;57.93;100663.98;4941446;57;1142520;-75
2021/06/11 22:04:08;;;;;;;16.35;10.40;;;;;;;21.15;58.84;100656.52;4931390;59;1142760;-76
2021/06/11 22:09:14;;;;;;;20.57;9.70;;;;;;;21.15;59.28;100652.48;4931481;59;1142593;-76
2021/06/11 22:14:19;;;;;;;19.62;11.28;;;;;;;21.17;59.63;100657.17;4931789;58;1140562;-77
2021/06/11 22:19:25;;;;;;;24.43;11.22;;;;;;;21.17;59.41;100657.17;4931497;58;1142681;-77
2021/06/11 22:24:31;;;;;;;16.57;10.60;;;;;;;21.12;59.46;100651.00;4931579;58;1142718;-75
2021/06/11 22:29:37;;;;;;;23.57;12.15;;;;;;;21.11;59.58;100647.14;4931395;58;1142632;-77
2021/06/11 22:34:43;;;;;;;22.50;11.08;;;;;;;21.09;59.53;100645.98;4931471;58;1142749;-74
2021/06/11 22:39:49;;;;;;;20.52;9.38;;;;;;;20.99;59.14;100642.73;4931500;58;1142708;-75
2021/06/11 22:44:55;;;;;;;24.40;9.85;;;;;;;20.58;59.54;100644.97;4931518;58;1140758;-72
2021/06/11 22:50:02;;;;;;;16.35;11.03;;;;;;;20.35;60.42;100635.53;4931523;58;1140637;-78
2021/06/11 22:55:11;;;;;;;18.85;10.08;;;;;;;20.32;61.38;100638.06;4931536;58;1142793;-74
2021/06/11 23:00:22;;;;;;;20.82;9.34;;;;;;;20.38;61.25;100639.75;4945279;59;1142995;-76
2021/06/11 23:05:28;;;;;;;13.30;8.10;;;;;;;20.12;61.02;100640.91;4940828;58;1140736;-77
2021/06/11 23:10:34;;;;;;;15.97;9.17;;;;;;;19.86;61.47;100646.58;4941090;59;1140591;-76
2021/06/11 23:15:40;;;;;;;8.83;7.17;;;;;;;19.89;62.40;100641.38;4940887;58;1140454;-78
2021/06/11 23:20:46;;;;;;;13.10;6.50;;;;;;;19.95;62.84;100635.31;4940974;58;1138357;-76
2021/06/11 23:25:54;;;;;;;8.33;6.78;;;;;;;19.98;63.06;100632.28;4940767;58;1140373;-75